Terminal Aerodrome Forecast
Issued by NWS

Current Version | Previous Version | Text Only | Print | Product List | Glossary On
Versions: 1 2 3 4 5 6 7 8 9 10 11 12 13 14
000
FTAK31 PAJN 041120
TAFAJN
TAF
PAJN 041120Z 0412/0512 VRB03KT P6SM FEW080 SCT150
     FM041700 26008KT P6SM SCT100
     FM050200 VRB05KT P6SM VCSH SCT050 SCT150=

USA.gov is the U.S. government's official web portal to all federal, state and local government web resources and services.